createdAt,value
2023-04-09T00:00:47.844Z,45.04
2023-04-09T00:03:25.327Z,44.88
2023-04-09T00:06:06.697Z,45.50
2023-04-09T00:08:33.815Z,45.54
2023-04-09T00:11:00.683Z,45.61
2023-04-09T00:13:38.459Z,45.68
2023-04-09T00:16:06.608Z,45.28
2023-04-09T00:18:33.432Z,45.47
2023-04-09T00:21:00.137Z,45.92
2023-04-09T00:23:27.031Z,45.76
2023-04-09T00:25:53.699Z,46.03
2023-04-09T00:28:20.664Z,45.99
2023-04-09T00:30:47.433Z,46.30
2023-04-09T00:33:14.223Z,46.45
2023-04-09T00:35:41.133Z,45.80
2023-04-09T00:38:09.518Z,46.13
2023-04-09T00:40:36.347Z,46.24
2023-04-09T00:43:06.758Z,46.24
2023-04-09T00:45:33.763Z,46.47
2023-04-09T00:48:04.227Z,46.84
2023-04-09T00:50:31.020Z,46.40
2023-04-09T00:52:57.730Z,46.28
2023-04-09T00:55:25.519Z,46.52
2023-04-09T00:57:52.303Z,46.59
2023-04-09T01:00:19.387Z,46.53
2023-04-09T01:02:46.533Z,47.31
2023-04-09T01:05:14.729Z,46.83
2023-04-09T01:08:09.282Z,46.51
2023-04-09T01:10:47.148Z,47.26
2023-04-09T01:13:24.090Z,47.42
2023-04-09T01:16:01.313Z,47.45
2023-04-09T01:19:02.430Z,47.73
2023-04-09T01:21:32.645Z,47.51
2023-04-09T01:24:26.829Z,47.34
2023-04-09T01:27:08.226Z,47.81
2023-04-09T01:29:51.294Z,47.77
2023-04-09T01:32:20.979Z,47.54
2023-04-09T01:34:48.313Z,47.31
2023-04-09T01:37:34.784Z,47.95
2023-04-09T01:40:08.244Z,48.19
2023-04-09T01:42:43.076Z,47.58
2023-04-09T01:45:16.699Z,48.11
2023-04-09T01:47:44.366Z,48.02
2023-04-09T01:50:11.295Z,48.25
2023-04-09T01:52:41.973Z,48.36
2023-04-09T01:55:11.516Z,48.46
2023-04-09T01:57:40.986Z,47.89
2023-04-09T02:00:11.604Z,48.59
2023-04-09T02:03:01.458Z,48.40
2023-04-09T02:05:36.338Z,48.71
2023-04-09T02:08:06.158Z,48.62
2023-04-09T02:10:38.220Z,48.84
2023-04-09T02:13:06.456Z,48.54
2023-04-09T02:15:36.670Z,48.39
2023-04-09T02:18:03.545Z,48.88
2023-04-09T02:20:30.642Z,49.26
2023-04-09T02:22:59.941Z,49.37
2023-04-09T02:25:27.355Z,48.74
2023-04-09T02:27:54.121Z,48.84
2023-04-09T02:30:20.965Z,48.64
2023-04-09T02:32:47.696Z,48.81
2023-04-09T02:35:15.597Z,48.57
2023-04-09T02:37:42.530Z,48.67
2023-04-09T02:40:09.900Z,49.02
2023-04-09T02:42:36.667Z,48.91
2023-04-09T02:45:03.472Z,49.37
2023-04-09T02:47:31.515Z,48.43
2023-04-09T02:49:58.214Z,48.89
2023-04-09T02:52:28.632Z,48.66
2023-04-09T02:54:55.166Z,49.21
2023-04-09T02:57:21.868Z,48.72
2023-04-09T02:59:48.526Z,49.34
2023-04-09T03:02:15.505Z,49.20
2023-04-09T03:04:44.498Z,48.78
2023-04-09T03:07:11.394Z,49.14
2023-04-09T03:09:38.088Z,49.27
2023-04-09T03:12:04.798Z,49.82
2023-04-09T03:14:31.606Z,50.36
2023-04-09T03:16:58.736Z,50.19
2023-04-09T03:19:25.392Z,50.66
2023-04-09T03:21:52.086Z,51.02
2023-04-09T03:24:23.439Z,50.69
2023-04-09T03:26:50.967Z,50.89
2023-04-09T03:29:17.906Z,51.67
2023-04-09T03:31:44.846Z,51.11
2023-04-09T03:34:11.433Z,51.46
2023-04-09T03:36:38.045Z,51.24
2023-04-09T03:39:10.704Z,51.50
2023-04-09T03:41:47.100Z,51.97
2023-04-09T03:44:16.190Z,51.85
2023-04-09T03:47:09.005Z,52.01
2023-04-09T03:49:37.830Z,51.62
2023-04-09T03:52:17.918Z,51.71
2023-04-09T03:54:50.053Z,52.17
2023-04-09T03:57:21.396Z,52.18
2023-04-09T03:59:50.977Z,52.04
2023-04-09T04:02:20.713Z,51.75
2023-04-09T04:05:01.925Z,52.24
2023-04-09T04:07:33.715Z,52.32
2023-04-09T04:10:09.339Z,51.67
2023-04-09T04:12:36.145Z,51.78
2023-04-09T04:15:16.691Z,51.56
2023-04-09T04:17:49.032Z,51.64
2023-04-09T04:20:39.275Z,51.73
2023-04-09T04:23:10.088Z,51.45
2023-04-09T04:25:45.448Z,51.57
2023-04-09T04:28:16.483Z,51.87
2023-04-09T04:30:43.254Z,51.19
2023-04-09T04:33:10.673Z,51.66
2023-04-09T04:35:45.694Z,51.49
2023-04-09T04:38:29.177Z,51.41
2023-04-09T04:40:58.078Z,51.15
2023-04-09T04:43:25.187Z,51.67
2023-04-09T04:45:54.185Z,51.65
2023-04-09T04:48:24.653Z,51.59
2023-04-09T04:50:59.571Z,51.73
2023-04-09T04:53:31.239Z,51.68
2023-04-09T04:56:00.637Z,51.54
2023-04-09T04:58:27.369Z,52.17
2023-04-09T05:00:58.010Z,51.89
2023-04-09T05:03:27.703Z,52.36
2023-04-09T05:06:24.463Z,51.93
2023-04-09T05:08:52.099Z,51.78
2023-04-09T05:11:18.999Z,52.47
2023-04-09T05:13:47.746Z,52.01
2023-04-09T05:16:19.487Z,52.31
2023-04-09T05:18:54.707Z,52.56
2023-04-09T05:21:21.680Z,52.00
2023-04-09T05:23:48.949Z,52.14
2023-04-09T05:26:15.578Z,52.00
2023-04-09T05:28:50.651Z,51.84
2023-04-09T05:31:19.583Z,51.80
2023-04-09T05:33:53.448Z,51.86
2023-04-09T05:36:26.027Z,52.13
2023-04-09T05:38:53.114Z,52.28
2023-04-09T05:41:19.890Z,52.64
2023-04-09T05:44:01.944Z,53.07
2023-04-09T05:46:31.801Z,53.00
2023-04-09T05:48:59.225Z,52.97
2023-04-09T05:51:27.710Z,52.79
2023-04-09T05:53:55.886Z,52.92
2023-04-09T05:56:23.459Z,53.33
2023-04-09T05:58:57.212Z,53.65
2023-04-09T06:02:13.921Z,53.61
2023-04-09T06:09:01.960Z,53.03
2023-04-09T06:11:57.810Z,52.91
2023-04-09T06:14:32.802Z,53.34
2023-04-09T06:17:04.871Z,52.83
2023-04-09T06:19:34.669Z,52.94
2023-04-09T06:22:01.454Z,52.34
2023-04-09T06:24:32.975Z,52.84
2023-04-09T06:27:00.442Z,52.27
2023-04-09T06:29:27.203Z,51.91
2023-04-09T06:31:54.146Z,51.04
2023-04-09T06:34:20.909Z,51.34
2023-04-09T06:36:47.663Z,51.43
2023-04-09T06:39:14.337Z,50.96
2023-04-09T06:41:41.381Z,50.96
2023-04-09T06:44:25.280Z,50.46
2023-04-09T06:46:55.049Z,49.98
2023-04-09T06:49:21.745Z,49.30
2023-04-09T06:51:48.435Z,49.20
2023-04-09T06:54:15.180Z,48.22
2023-04-09T06:56:42.001Z,47.98
2023-04-09T06:59:09.737Z,47.04
2023-04-09T07:01:37.823Z,46.85
2023-04-09T07:04:05.293Z,46.08
2023-04-09T07:06:34.594Z,45.98
2023-04-09T07:09:01.414Z,45.35
2023-04-09T07:11:30.592Z,45.12
2023-04-09T07:13:57.483Z,44.55
2023-04-09T07:16:24.378Z,43.89
2023-04-09T07:18:56.091Z,44.32
2023-04-09T07:21:27.336Z,43.77
2023-04-09T07:23:59.083Z,43.70
2023-04-09T07:26:33.096Z,43.53
2023-04-09T07:28:59.919Z,43.28
2023-04-09T07:31:27.090Z,43.29
2023-04-09T07:36:35.126Z,42.40
2023-04-09T07:39:01.936Z,42.54
2023-04-09T07:41:31.895Z,41.91
2023-04-09T07:44:03.571Z,41.75
2023-04-09T07:46:30.420Z,42.19
2023-04-09T07:48:57.228Z,42.77
2023-04-09T07:51:32.375Z,42.95
2023-04-09T07:53:59.209Z,42.94
2023-04-09T07:56:26.161Z,43.58
2023-04-09T07:58:54.421Z,42.82
2023-04-09T08:01:27.314Z,42.25
2023-04-09T08:03:54.199Z,42.14
2023-04-09T08:06:21.117Z,41.75
2023-04-09T08:08:47.775Z,42.05
2023-04-09T08:11:14.497Z,41.67
2023-04-09T08:13:42.945Z,40.56
2023-04-09T08:16:10.361Z,40.16
2023-04-09T08:18:37.175Z,39.32
2023-04-09T08:21:07.289Z,39.32
2023-04-09T08:23:33.955Z,38.97
2023-04-09T08:26:00.755Z,39.24
2023-04-09T08:28:27.637Z,39.87
2023-04-09T08:30:54.696Z,39.99
2023-04-09T08:33:22.924Z,41.15
2023-04-09T08:35:49.775Z,40.75
2023-04-09T08:38:19.834Z,40.98
2023-04-09T08:40:46.849Z,41.32
2023-04-09T08:43:16.383Z,41.44
2023-04-09T08:45:43.482Z,40.98
2023-04-09T08:48:13.482Z,39.89
2023-04-09T08:50:43.157Z,39.84
2023-04-09T08:53:11.171Z,39.29
2023-04-09T08:55:38.518Z,38.38
2023-04-09T08:58:07.812Z,34.01
2023-04-09T09:00:34.514Z,29.53
2023-04-09T09:03:05.515Z,27.40
2023-04-09T09:05:40.293Z,22.84
2023-04-09T09:08:09.717Z,22.11
2023-04-09T09:10:46.804Z,23.09
2023-04-09T09:13:24.908Z,23.39
2023-04-09T09:16:11.493Z,22.21
2023-04-09T09:18:41.118Z,23.05
2023-04-09T09:21:15.342Z,22.52
2023-04-09T09:23:42.805Z,21.26
2023-04-09T09:26:18.433Z,19.52
2023-04-09T09:28:49.100Z,16.93
2023-04-09T09:31:17.148Z,14.67
2023-04-09T09:33:44.531Z,12.88
2023-04-09T09:36:11.606Z,12.79
2023-04-09T09:38:53.989Z,12.11
2023-04-09T09:41:22.244Z,13.00
2023-04-09T09:43:50.411Z,12.50
2023-04-09T09:46:17.854Z,11.79
2023-04-09T09:48:51.836Z,10.33
2023-04-09T09:51:27.702Z,9.63
2023-04-09T09:53:58.211Z,10.89
2023-04-09T09:56:34.706Z,12.53
2023-04-09T09:59:16.243Z,12.39
2023-04-09T10:01:48.615Z,13.38
2023-04-09T10:04:21.668Z,16.00
2023-04-09T10:06:52.189Z,17.15
2023-04-09T10:09:22.846Z,15.51
2023-04-09T10:11:50.500Z,14.58
2023-04-09T10:14:19.168Z,14.64
2023-04-09T10:16:50.674Z,16.67
2023-04-09T10:19:24.922Z,17.93
2023-04-09T10:21:58.337Z,20.20
2023-04-09T10:24:29.487Z,20.86
2023-04-09T10:27:10.575Z,21.12
2023-04-09T10:29:45.824Z,21.40
2023-04-09T10:32:13.864Z,22.93
2023-04-09T10:34:42.797Z,23.75
2023-04-09T10:37:16.128Z,24.47
2023-04-09T10:39:48.200Z,24.58
2023-04-09T10:42:21.822Z,24.24
2023-04-09T10:45:07.721Z,24.07
2023-04-09T10:47:37.117Z,24.24
2023-04-09T10:50:27.125Z,24.27
2023-04-09T10:52:56.728Z,24.15
2023-04-09T10:55:42.572Z,22.76
2023-04-09T10:58:13.104Z,21.60
2023-04-09T11:00:42.541Z,22.42
2023-04-09T11:03:30.583Z,22.89
2023-04-09T11:06:07.402Z,22.88
2023-04-09T11:08:38.432Z,23.38
2023-04-09T11:11:06.150Z,23.68
2023-04-09T11:13:34.254Z,23.80
2023-04-09T11:16:04.056Z,24.00
2023-04-09T11:18:34.865Z,24.21
2023-04-09T11:21:02.252Z,24.36
2023-04-09T11:23:29.151Z,24.34
2023-04-09T11:25:56.582Z,24.80
2023-04-09T11:28:25.714Z,25.16
2023-04-09T11:30:53.075Z,24.89
2023-04-09T11:33:20.751Z,24.85
2023-04-09T11:35:48.560Z,25.56
2023-04-09T11:38:15.859Z,25.42
2023-04-09T11:40:48.732Z,25.84
2023-04-09T11:43:16.951Z,26.44
2023-04-09T11:45:44.811Z,26.64
2023-04-09T11:48:13.066Z,26.28
2023-04-09T11:50:40.671Z,26.28
2023-04-09T11:53:37.653Z,26.45
2023-04-09T11:56:04.734Z,26.81
2023-04-09T11:58:32.232Z,26.94
2023-04-09T12:01:00.075Z,26.75
2023-04-09T12:03:33.894Z,26.55
2023-04-09T12:06:02.876Z,26.43
2023-04-09T12:08:39.168Z,25.78
2023-04-09T12:11:15.541Z,25.76
2023-04-09T12:13:45.006Z,25.58
2023-04-09T12:16:16.870Z,25.21
2023-04-09T12:18:43.831Z,25.38
2023-04-09T12:21:11.384Z,25.75
2023-04-09T12:23:39.537Z,26.13
2023-04-09T12:26:06.781Z,26.16
2023-04-09T12:28:33.657Z,26.16
2023-04-09T12:31:00.590Z,26.79
2023-04-09T12:33:27.438Z,26.33
2023-04-09T12:35:54.433Z,26.39
2023-04-09T12:38:21.459Z,25.89
2023-04-09T12:40:48.257Z,25.34
2023-04-09T12:43:15.897Z,24.80
2023-04-09T12:45:42.774Z,24.11
2023-04-09T12:48:11.682Z,24.33
2023-04-09T12:50:41.529Z,24.47
2023-04-09T12:53:09.077Z,24.32
2023-04-09T12:55:36.208Z,24.64
2023-04-09T12:58:05.934Z,24.88
2023-04-09T13:00:35.624Z,24.56
2023-04-09T13:03:02.442Z,24.13
2023-04-09T13:05:31.546Z,24.30
2023-04-09T13:07:59.591Z,24.79
2023-04-09T13:10:26.531Z,24.77
2023-04-09T13:12:53.392Z,24.82
2023-04-09T13:15:20.446Z,24.45
2023-04-09T13:17:47.344Z,25.17
2023-04-09T13:20:17.368Z,24.80
2023-04-09T13:22:48.772Z,24.43
2023-04-09T13:25:16.627Z,24.99
2023-04-09T13:27:43.903Z,24.40
2023-04-09T13:30:10.937Z,24.83
2023-04-09T13:32:38.266Z,25.21
2023-04-09T13:35:06.642Z,24.68
2023-04-09T13:37:33.517Z,25.04
2023-04-09T13:40:01.089Z,24.62
2023-04-09T13:42:28.403Z,24.50
2023-04-09T13:44:57.588Z,24.58
2023-04-09T13:47:24.488Z,24.26
2023-04-09T13:49:54.415Z,24.24
2023-04-09T13:52:29.291Z,24.34
2023-04-09T13:55:01.566Z,24.19
2023-04-09T13:57:28.922Z,24.14
2023-04-09T13:59:56.094Z,24.86
2023-04-09T14:02:23.870Z,25.44
2023-04-09T14:04:51.529Z,25.41
2023-04-09T14:07:30.230Z,25.86
2023-04-09T14:16:59.338Z,25.35
2023-04-09T14:19:44.317Z,24.69
2023-04-09T14:22:11.958Z,25.41
2023-04-09T14:24:50.629Z,24.27
2023-04-09T14:27:17.643Z,24.88
2023-04-09T14:29:44.436Z,25.37
2023-04-09T14:32:13.706Z,25.10
2023-04-09T14:34:43.628Z,24.96
2023-04-09T14:37:12.237Z,24.90
2023-04-09T14:39:39.227Z,24.60
2023-04-09T14:42:06.389Z,24.99
2023-04-09T14:44:41.282Z,24.98
2023-04-09T14:47:11.771Z,24.17
2023-04-09T14:49:39.249Z,24.64
2023-04-09T14:52:06.535Z,25.07
2023-04-09T14:54:43.552Z,24.72
2023-04-09T14:57:12.406Z,25.10
2023-04-09T14:59:39.245Z,25.17
2023-04-09T15:02:06.286Z,25.02
2023-04-09T15:04:34.050Z,24.86
2023-04-09T15:07:03.849Z,24.57
2023-04-09T15:09:30.700Z,24.35
2023-04-09T15:11:58.019Z,24.40
2023-04-09T15:14:25.210Z,24.74
2023-04-09T15:16:55.752Z,25.18
2023-04-09T15:19:22.970Z,25.25
2023-04-09T15:21:49.820Z,26.18
2023-04-09T15:24:16.694Z,25.81
2023-04-09T15:26:43.598Z,26.32
2023-04-09T15:29:12.453Z,26.56
2023-04-09T15:31:41.326Z,26.61
2023-04-09T15:34:08.808Z,26.72
2023-04-09T15:36:36.659Z,27.03
2023-04-09T15:39:04.764Z,27.42
2023-04-09T15:41:32.811Z,27.26
2023-04-09T15:43:59.779Z,27.34
2023-04-09T15:46:26.649Z,26.81
2023-04-09T15:48:56.251Z,27.08
2023-04-09T15:51:22.978Z,27.36
2023-04-09T15:53:49.873Z,27.06
2023-04-09T15:56:17.360Z,26.95
2023-04-09T15:58:44.947Z,26.89
2023-04-09T16:01:12.911Z,27.11
2023-04-09T16:03:41.142Z,27.18
2023-04-09T16:06:15.152Z,27.09
2023-04-09T16:08:44.702Z,26.99
2023-04-09T16:11:11.458Z,27.43
2023-04-09T16:13:41.288Z,27.44
2023-04-09T16:16:09.448Z,27.29
2023-04-09T16:18:39.617Z,27.17
2023-04-09T16:21:12.984Z,27.24
2023-04-09T16:23:41.077Z,27.48
2023-04-09T16:26:08.039Z,27.11
2023-04-09T16:28:36.442Z,27.09
2023-04-09T16:31:03.227Z,27.52
2023-04-09T16:33:30.612Z,26.88
2023-04-09T16:35:58.274Z,27.42
2023-04-09T16:38:29.275Z,27.46
2023-04-09T16:40:56.491Z,27.09
2023-04-09T16:43:23.502Z,27.38
2023-04-09T16:45:50.462Z,27.74
2023-04-09T16:48:17.487Z,27.88
2023-04-09T16:50:44.557Z,28.25
2023-04-09T16:53:11.294Z,28.04
2023-04-09T16:55:38.234Z,27.89
2023-04-09T16:58:05.521Z,28.43
2023-04-09T17:00:32.591Z,28.28
2023-04-09T17:02:59.766Z,28.46
2023-04-09T17:05:26.613Z,28.34
2023-04-09T17:07:53.726Z,28.25
2023-04-09T17:10:20.983Z,28.41
2023-04-09T17:12:48.747Z,28.18
2023-04-09T17:15:16.230Z,28.44
2023-04-09T17:17:53.696Z,28.50
2023-04-09T17:20:22.622Z,28.87
2023-04-09T17:22:49.657Z,29.00
2023-04-09T17:25:16.811Z,29.17
2023-04-09T17:27:45.342Z,28.69
2023-04-09T17:30:13.011Z,28.86
2023-04-09T17:32:40.722Z,29.09
2023-04-09T17:35:08.030Z,29.21
2023-04-09T17:37:35.357Z,28.95
2023-04-09T17:40:03.392Z,29.99
2023-04-09T17:42:31.369Z,29.51
2023-04-09T17:44:58.208Z,29.73
2023-04-09T17:47:25.025Z,29.93
2023-04-09T17:49:52.697Z,30.05
2023-04-09T17:52:20.568Z,30.36
2023-04-09T17:54:47.317Z,30.40
2023-04-09T17:57:14.061Z,30.61
2023-04-09T17:59:41.083Z,30.74
2023-04-09T18:02:08.172Z,30.48
2023-04-09T18:04:35.585Z,30.85
2023-04-09T18:07:03.892Z,30.84
2023-04-09T18:09:32.196Z,31.07
2023-04-09T18:12:01.101Z,31.49
2023-04-09T18:14:32.406Z,31.42
2023-04-09T18:17:01.872Z,31.36
2023-04-09T18:19:28.734Z,31.83
2023-04-09T18:21:55.507Z,31.49
2023-04-09T18:24:22.237Z,31.54
2023-04-09T18:26:49.039Z,31.43
2023-04-09T18:29:15.761Z,31.71
2023-04-09T18:31:42.696Z,31.73
2023-04-09T18:34:10.378Z,31.88
2023-04-09T18:36:37.077Z,32.18
2023-04-09T18:39:05.125Z,32.34
2023-04-09T18:41:32.349Z,32.77
2023-04-09T18:43:59.195Z,32.46
2023-04-09T18:46:28.482Z,32.52
2023-04-09T18:48:56.352Z,32.51
2023-04-09T18:51:23.060Z,32.80
2023-04-09T18:53:53.036Z,32.88
2023-04-09T18:56:20.325Z,33.13
2023-04-09T18:58:48.334Z,33.33
2023-04-09T19:01:17.394Z,33.10
2023-04-09T19:03:44.839Z,33.58
2023-04-09T19:06:20.536Z,33.64
2023-04-09T19:08:48.130Z,33.26
2023-04-09T19:11:18.600Z,33.90
2023-04-09T19:13:46.308Z,33.65
2023-04-09T19:16:13.481Z,33.85
2023-04-09T19:18:40.688Z,33.79
2023-04-09T19:21:35.951Z,34.40
2023-04-09T19:24:05.482Z,34.00
2023-04-09T19:26:33.312Z,34.16
2023-04-09T19:29:25.282Z,34.32
2023-04-09T19:31:57.447Z,34.45
2023-04-09T19:34:25.512Z,34.97
2023-04-09T19:36:52.925Z,35.14
2023-04-09T19:39:23.139Z,35.03
2023-04-09T19:42:14.274Z,35.03
2023-04-09T19:44:56.120Z,35.07
2023-04-09T19:47:37.526Z,35.56
2023-04-09T19:50:34.621Z,35.50
2023-04-09T19:53:04.092Z,35.79
2023-04-09T19:55:38.148Z,35.61
2023-04-09T19:58:05.930Z,36.09
2023-04-09T20:00:33.835Z,35.98
2023-04-09T20:03:01.230Z,36.06
2023-04-09T20:05:28.058Z,35.92
2023-04-09T20:07:54.900Z,36.56
2023-04-09T20:10:40.441Z,36.16
2023-04-09T20:15:59.095Z,36.81
2023-04-09T20:18:55.023Z,37.21
2023-04-09T20:21:25.098Z,36.85
2023-04-09T20:23:52.037Z,36.97
2023-04-09T20:26:29.360Z,36.94
2023-04-09T20:29:12.002Z,37.74
2023-04-09T20:32:07.361Z,37.43
2023-04-09T20:34:45.420Z,38.09
2023-04-09T20:37:12.304Z,37.63
2023-04-09T20:39:41.265Z,38.14
2023-04-09T20:42:11.396Z,37.95
2023-04-09T20:44:41.905Z,38.47
2023-04-09T20:47:08.789Z,38.53
2023-04-09T20:49:43.327Z,38.01
2023-04-09T20:52:22.764Z,37.88
2023-04-09T20:54:55.402Z,38.24
2023-04-09T20:57:23.258Z,38.48
2023-04-09T20:59:50.405Z,38.35
2023-04-09T21:02:27.302Z,38.25
2023-04-09T21:05:19.530Z,38.80
2023-04-09T21:08:01.380Z,38.30
2023-04-09T21:10:37.427Z,38.26
2023-04-09T21:13:21.771Z,38.55
2023-04-09T21:15:53.866Z,38.37
2023-04-09T21:18:31.529Z,38.41
2023-04-09T21:21:05.949Z,39.06
2023-04-09T21:23:43.840Z,39.32
2023-04-09T21:26:14.798Z,39.33
2023-04-09T21:29:01.963Z,39.09
2023-04-09T21:31:32.043Z,38.79
2023-04-09T21:33:59.816Z,39.30
2023-04-09T21:36:27.557Z,39.40
2023-04-09T21:38:54.439Z,39.77
2023-04-09T21:41:23.601Z,39.60
2023-04-09T21:43:50.471Z,39.12
2023-04-09T21:46:17.606Z,39.00
2023-04-09T21:48:44.830Z,39.62
2023-04-09T21:51:12.409Z,40.15
2023-04-09T21:53:39.196Z,39.72
2023-04-09T21:56:06.403Z,39.81
2023-04-09T21:58:36.431Z,40.26
2023-04-09T22:01:15.698Z,39.83
2023-04-09T22:03:59.819Z,40.57
2023-04-09T22:06:32.658Z,39.89
2023-04-09T22:08:59.834Z,40.13
2023-04-09T22:11:28.475Z,40.37
2023-04-09T22:13:57.319Z,40.53
2023-04-09T22:16:24.970Z,40.09
2023-04-09T22:18:54.513Z,40.46
2023-04-09T22:21:22.479Z,40.65
2023-04-09T22:23:49.206Z,40.75
2023-04-09T22:26:16.251Z,41.06
2023-04-09T22:28:43.321Z,41.13
2023-04-09T22:31:10.392Z,41.23
2023-04-09T22:33:37.257Z,41.15
2023-04-09T22:36:04.288Z,40.64
2023-04-09T22:38:32.262Z,40.97
2023-04-09T22:41:03.508Z,41.43
2023-04-09T22:43:32.979Z,41.45
2023-04-09T22:46:00.275Z,41.09
2023-04-09T22:48:29.069Z,41.28
2023-04-09T22:50:57.796Z,41.43
2023-04-09T22:53:24.697Z,41.73
2023-04-09T22:55:55.478Z,41.48
2023-04-09T22:58:25.725Z,41.42
2023-04-09T23:00:55.181Z,40.95
2023-04-09T23:03:27.450Z,41.51
2023-04-09T23:05:54.291Z,41.38
2023-04-09T23:08:21.550Z,41.71
2023-04-09T23:10:48.760Z,41.33
2023-04-09T23:13:17.211Z,41.47
2023-04-09T23:15:44.704Z,41.99
2023-04-09T23:18:12.661Z,41.39
2023-04-09T23:20:43.501Z,41.59
2023-04-09T23:23:16.153Z,41.35
2023-04-09T23:25:52.601Z,41.77
2023-04-09T23:28:19.407Z,41.43
2023-04-09T23:30:48.904Z,41.45
2023-04-09T23:33:15.835Z,41.94
2023-04-09T23:35:42.447Z,41.70
2023-04-09T23:38:09.321Z,41.68
2023-04-09T23:40:36.244Z,41.67
2023-04-09T23:43:03.012Z,41.68
2023-04-09T23:45:29.668Z,41.84
2023-04-09T23:47:57.519Z,42.06
2023-04-09T23:50:24.609Z,42.23
2023-04-09T23:52:51.792Z,42.13
2023-04-09T23:55:18.923Z,42.06
2023-04-09T23:57:45.766Z,41.71
